createdAt,value
2023-05-19T00:01:33.121Z,1.40
2023-05-19T00:03:37.486Z,1.40
2023-05-19T00:05:46.290Z,1.95
2023-05-19T00:07:48.266Z,2.20
2023-05-19T00:09:50.946Z,1.45
2023-05-19T00:13:55.561Z,1.42
2023-05-19T00:17:59.478Z,1.60
2023-05-19T00:20:01.585Z,1.80
2023-05-19T00:22:03.562Z,1.77
2023-05-19T00:24:06.416Z,1.73
2023-05-19T00:26:08.266Z,1.67
2023-05-19T00:28:10.118Z,1.70
2023-05-19T00:30:12.267Z,1.80
2023-05-19T00:32:14.329Z,1.75
2023-05-19T00:34:16.302Z,1.90
2023-05-19T00:36:18.122Z,1.58
2023-05-19T00:38:19.974Z,1.70
2023-05-19T00:40:21.829Z,1.85
2023-05-19T00:42:23.683Z,1.90
2023-05-19T00:44:25.554Z,1.80
2023-05-19T00:46:27.418Z,2.17
2023-05-19T00:48:29.340Z,1.35
2023-05-19T00:50:31.436Z,1.50
2023-05-19T00:52:33.431Z,1.73
2023-05-19T00:54:35.993Z,1.50
2023-05-19T00:56:37.888Z,1.70
2023-05-19T00:58:39.818Z,1.73
2023-05-19T01:00:43.405Z,1.70
2023-05-19T01:02:45.355Z,1.50
2023-05-19T01:04:47.305Z,1.77
2023-05-19T01:06:49.811Z,1.73
2023-05-19T01:08:51.888Z,1.40
2023-05-19T01:10:54.186Z,1.40
2023-05-19T01:12:56.210Z,1.65
2023-05-19T01:14:58.594Z,1.80
2023-05-19T01:17:19.003Z,1.73
2023-05-19T01:19:39.632Z,1.80
2023-05-19T01:22:01.169Z,2.30
2023-05-19T01:24:39.900Z,1.95
2023-05-19T01:27:20.092Z,1.52
2023-05-19T01:29:46.502Z,1.60
2023-05-19T01:31:50.496Z,1.73
2023-05-19T01:33:53.063Z,1.90
2023-05-19T01:35:54.915Z,1.80
2023-05-19T01:37:58.014Z,2.20
2023-05-19T01:39:59.873Z,1.77
2023-05-19T01:42:01.791Z,1.50
2023-05-19T01:44:03.641Z,1.80
2023-05-19T01:46:05.722Z,1.85
2023-05-19T01:48:10.678Z,2.05
2023-05-19T01:50:12.995Z,1.92
2023-05-19T01:52:14.833Z,1.70
2023-05-19T01:54:16.793Z,1.83
2023-05-19T01:56:30.535Z,1.88
2023-05-19T01:58:41.903Z,1.67
2023-05-19T02:01:00.374Z,1.88
2023-05-19T02:03:14.551Z,1.67
2023-05-19T02:05:29.544Z,1.83
2023-05-19T02:07:42.712Z,1.58
2023-05-19T02:10:06.537Z,1.90
2023-05-19T02:12:26.005Z,1.73
2023-05-19T02:14:40.290Z,1.80
2023-05-19T02:16:44.504Z,1.70
2023-05-19T02:18:48.151Z,1.92
2023-05-19T02:20:50.017Z,1.60
2023-05-19T02:22:51.891Z,1.70
2023-05-19T02:24:53.826Z,1.70
2023-05-19T02:26:55.712Z,1.63
2023-05-19T02:28:57.530Z,1.75
2023-05-19T02:30:59.374Z,1.97
2023-05-19T02:33:01.334Z,1.67
2023-05-19T02:35:04.076Z,1.80
2023-05-19T02:37:07.730Z,1.45
2023-05-19T02:39:11.090Z,2.00
2023-05-19T02:41:13.088Z,1.48
2023-05-19T02:43:14.947Z,1.73
2023-05-19T02:45:16.881Z,1.73
2023-05-19T02:47:18.745Z,1.85
2023-05-19T02:49:20.759Z,1.88
2023-05-19T02:51:22.622Z,2.00
2023-05-19T02:53:24.528Z,2.45
2023-05-19T02:55:26.814Z,2.10
2023-05-19T02:57:31.638Z,2.10
2023-05-19T02:59:33.600Z,2.05
2023-05-19T03:01:37.842Z,2.00
2023-05-19T03:03:39.947Z,2.45
2023-05-19T03:05:41.911Z,2.00
2023-05-19T03:07:43.816Z,1.92
2023-05-19T03:09:45.713Z,2.20
2023-05-19T03:11:47.553Z,2.42
2023-05-19T03:13:49.455Z,2.28
2023-05-19T03:15:51.551Z,2.15
2023-05-19T03:17:53.574Z,2.28
2023-05-19T03:19:55.849Z,2.50
2023-05-19T03:21:58.149Z,2.40
2023-05-19T03:24:00.348Z,2.17
2023-05-19T03:26:02.179Z,2.20
2023-05-19T03:28:04.199Z,2.47
2023-05-19T03:30:06.818Z,2.08
2023-05-19T03:34:10.621Z,2.17
2023-05-19T03:36:12.752Z,1.92
2023-05-19T03:38:14.648Z,2.42
2023-05-19T03:40:18.927Z,2.10
2023-05-19T03:42:20.816Z,2.20
2023-05-19T03:44:22.673Z,2.40
2023-05-19T03:46:24.591Z,2.40
2023-05-19T03:48:26.985Z,2.33
2023-05-19T03:50:29.205Z,2.70
2023-05-19T03:52:31.099Z,2.08
2023-05-19T03:54:33.084Z,2.43
2023-05-19T03:56:38.225Z,2.30
2023-05-19T03:58:43.549Z,2.70
2023-05-19T04:00:45.396Z,2.25
2023-05-19T04:02:47.354Z,2.38
2023-05-19T04:04:50.787Z,2.00
2023-05-19T04:06:52.840Z,3.03
2023-05-19T04:08:54.755Z,3.72
2023-05-19T04:10:56.814Z,2.55
2023-05-19T04:12:58.673Z,2.97
2023-05-19T04:15:00.593Z,2.53
2023-05-19T04:17:02.479Z,2.55
2023-05-19T04:19:04.502Z,2.57
2023-05-19T04:21:08.657Z,2.88
2023-05-19T04:23:10.689Z,2.85
2023-05-19T04:25:12.544Z,2.92
2023-05-19T04:27:16.189Z,2.80
2023-05-19T04:29:18.361Z,2.33
2023-05-19T04:31:21.804Z,2.53
2023-05-19T04:33:23.715Z,2.80
2023-05-19T04:35:25.560Z,2.53
2023-05-19T04:37:27.524Z,2.20
2023-05-19T04:39:29.368Z,2.03
2023-05-19T04:41:31.629Z,1.73
2023-05-19T04:43:34.416Z,2.28
2023-05-19T04:49:42.188Z,2.15
2023-05-19T04:51:46.152Z,1.70
2023-05-19T04:53:48.107Z,2.47
2023-05-19T04:55:50.378Z,2.08
2023-05-19T04:57:52.239Z,2.33
2023-05-19T04:59:59.860Z,2.20
2023-05-19T05:02:01.739Z,1.55
2023-05-19T05:04:03.811Z,1.73
2023-05-19T05:06:06.652Z,2.13
2023-05-19T05:10:11.663Z,2.05
2023-05-19T05:12:14.559Z,1.83
2023-05-19T05:14:16.669Z,1.80
2023-05-19T05:16:18.777Z,1.70
2023-05-19T05:18:20.961Z,1.92
2023-05-19T05:20:23.020Z,1.90
2023-05-19T05:22:25.127Z,1.73
2023-05-19T05:24:27.479Z,1.98
2023-05-19T05:26:31.152Z,1.83
2023-05-19T05:28:33.400Z,2.38
2023-05-19T05:30:35.530Z,1.70
2023-05-19T05:32:37.621Z,1.98
2023-05-19T05:34:41.108Z,2.13
2023-05-19T05:36:43.101Z,1.75
2023-05-19T05:38:45.049Z,1.67
2023-05-19T05:40:47.152Z,1.80
2023-05-19T05:42:49.126Z,2.05
2023-05-19T05:44:51.281Z,1.90
2023-05-19T05:46:53.441Z,1.80
2023-05-19T05:48:55.574Z,1.70
2023-05-19T05:50:58.077Z,1.90
2023-05-19T05:52:59.943Z,1.80
2023-05-19T05:55:02.146Z,1.70
2023-05-19T05:57:04.408Z,1.40
2023-05-19T05:59:06.447Z,1.70
2023-05-19T06:01:11.017Z,1.60
2023-05-19T06:03:13.550Z,1.83
2023-05-19T06:07:17.549Z,1.55
2023-05-19T06:09:19.483Z,1.67
2023-05-19T06:11:21.456Z,1.70
2023-05-19T06:13:24.240Z,1.63
2023-05-19T06:15:26.310Z,1.95
2023-05-19T06:17:28.324Z,1.40
2023-05-19T06:19:30.755Z,1.85
2023-05-19T06:21:32.668Z,1.90
2023-05-19T06:23:34.628Z,1.85
2023-05-19T06:25:36.613Z,1.30
2023-05-19T06:27:38.475Z,1.52
2023-05-19T06:29:40.345Z,1.67
2023-05-19T06:31:42.314Z,1.67
2023-05-19T06:33:44.229Z,1.88
2023-05-19T06:35:46.103Z,1.50
2023-05-19T06:37:47.982Z,2.10
2023-05-19T06:39:53.602Z,1.53
2023-05-19T06:41:55.516Z,1.67
2023-05-19T06:43:57.501Z,1.70
2023-05-19T06:45:59.335Z,1.40
2023-05-19T06:48:01.455Z,1.53
2023-05-19T06:50:03.714Z,2.00
2023-05-19T06:52:05.896Z,2.20
2023-05-19T06:54:07.921Z,1.45
2023-05-19T06:56:09.853Z,1.75
2023-05-19T06:58:11.772Z,1.83
2023-05-19T07:00:16.110Z,1.70
2023-05-19T07:02:20.160Z,2.15
2023-05-19T07:04:22.077Z,1.90
2023-05-19T07:06:23.976Z,2.03
2023-05-19T07:08:27.911Z,1.50
2023-05-19T07:10:29.909Z,1.95
2023-05-19T07:12:31.781Z,1.90
2023-05-19T07:14:33.722Z,2.07
2023-05-19T07:16:35.692Z,1.77
2023-05-19T07:18:37.691Z,1.70
2023-05-19T07:20:39.611Z,1.92
2023-05-19T07:22:41.685Z,1.83
2023-05-19T07:24:43.620Z,2.15
2023-05-19T07:26:45.592Z,1.65
2023-05-19T07:28:47.497Z,2.10
2023-05-19T07:30:50.017Z,1.83
2023-05-19T07:32:51.933Z,1.80
2023-05-19T07:34:53.887Z,2.25
2023-05-19T07:36:56.368Z,1.73
2023-05-19T07:38:58.355Z,2.25
2023-05-19T07:41:03.574Z,1.88
2023-05-19T07:43:05.714Z,2.10
2023-05-19T07:45:08.129Z,1.75
2023-05-19T07:47:10.226Z,1.88
2023-05-19T07:49:12.122Z,1.80
2023-05-19T07:51:14.110Z,2.38
2023-05-19T07:53:16.044Z,2.03
2023-05-19T07:55:19.335Z,1.70
2023-05-19T07:57:21.313Z,1.83
2023-05-19T07:59:23.188Z,1.65
2023-05-19T08:01:25.126Z,2.40
2023-05-19T08:03:27.513Z,2.00
2023-05-19T08:07:32.065Z,1.52
2023-05-19T08:09:33.959Z,2.25
2023-05-19T08:11:36.748Z,1.60
2023-05-19T08:15:41.306Z,2.20
2023-05-19T08:17:43.336Z,2.05
2023-05-19T08:19:45.328Z,1.63
2023-05-19T08:21:48.429Z,2.20
2023-05-19T08:23:50.359Z,1.70
2023-05-19T08:25:52.419Z,2.10
2023-05-19T08:27:54.310Z,1.85
2023-05-19T08:29:57.547Z,1.90
2023-05-19T08:31:59.576Z,1.67
2023-05-19T08:34:01.537Z,2.13
2023-05-19T08:36:03.558Z,1.80
2023-05-19T08:38:05.476Z,1.90
2023-05-19T08:40:09.012Z,1.80
2023-05-19T08:42:11.626Z,1.70
2023-05-19T08:44:13.490Z,1.98
2023-05-19T08:46:17.006Z,1.38
2023-05-19T08:48:19.406Z,2.40
2023-05-19T08:50:29.049Z,1.90
2023-05-19T08:52:30.975Z,2.03
2023-05-19T08:54:38.450Z,2.03
2023-05-19T08:56:40.326Z,2.13
2023-05-19T08:58:44.132Z,1.70
2023-05-19T09:00:46.736Z,1.83
2023-05-19T09:02:59.898Z,2.13
2023-05-19T09:05:08.500Z,1.58
2023-05-19T09:07:11.029Z,1.67
2023-05-19T09:09:12.910Z,1.88
2023-05-19T09:11:15.004Z,1.83
2023-05-19T09:13:16.977Z,2.00
2023-05-19T09:15:19.342Z,2.45
2023-05-19T09:17:21.457Z,2.05
2023-05-19T09:19:23.442Z,2.00
2023-05-19T09:21:31.679Z,1.70
2023-05-19T09:23:34.160Z,1.70
2023-05-19T09:25:36.548Z,1.95
2023-05-19T09:27:38.458Z,2.30
2023-05-19T09:29:40.352Z,2.22
2023-05-19T09:31:56.046Z,2.22
2023-05-19T09:33:58.040Z,2.28
2023-05-19T09:36:00.038Z,2.00
2023-05-19T09:38:01.978Z,2.00
2023-05-19T09:40:04.650Z,2.03
2023-05-19T09:44:32.878Z,2.00
2023-05-19T09:46:36.765Z,2.38
2023-05-19T09:48:38.673Z,2.53
2023-05-19T09:50:40.579Z,2.05
2023-05-19T09:52:45.237Z,1.98
2023-05-19T09:54:47.245Z,2.33
2023-05-19T09:57:02.214Z,2.47
2023-05-19T09:59:04.186Z,1.92
2023-05-19T10:01:06.504Z,2.42
2023-05-19T10:03:08.476Z,2.28
2023-05-19T10:05:17.324Z,2.65
2023-05-19T10:07:19.750Z,2.08
2023-05-19T10:09:25.160Z,2.53
2023-05-19T10:11:27.468Z,2.42
2023-05-19T10:13:29.838Z,2.45
2023-05-19T10:15:33.071Z,2.65
2023-05-19T10:17:41.820Z,2.60
2023-05-19T10:19:43.748Z,2.58
2023-05-19T10:21:45.741Z,2.42
2023-05-19T10:23:47.628Z,3.17
2023-05-19T10:25:50.645Z,2.72
2023-05-19T10:28:08.922Z,2.50
2023-05-19T10:30:16.744Z,2.90
2023-05-19T10:32:21.747Z,2.70
2023-05-19T10:34:27.980Z,2.80
2023-05-19T10:36:47.852Z,3.10
2023-05-19T10:39:13.372Z,2.95
2023-05-19T10:41:28.796Z,2.10
2023-05-19T10:44:02.132Z,2.40
2023-05-19T10:46:04.134Z,2.00
2023-05-19T10:48:06.082Z,1.63
2023-05-19T10:50:08.517Z,1.73
2023-05-19T10:52:21.930Z,2.30
2023-05-19T10:54:43.552Z,2.13
2023-05-19T10:56:48.571Z,2.15
2023-05-19T10:58:50.856Z,2.75
2023-05-19T11:01:00.535Z,2.45
2023-05-19T11:03:15.977Z,2.90
2023-05-19T11:05:20.597Z,3.20
2023-05-19T11:07:24.637Z,4.13
2023-05-19T11:09:37.812Z,3.65
2023-05-19T11:11:54.610Z,2.22
2023-05-19T11:13:56.686Z,2.10
2023-05-19T11:15:58.633Z,2.22
2023-05-19T11:18:01.437Z,1.77
2023-05-19T11:20:05.090Z,1.95
2023-05-19T11:22:11.527Z,2.47
2023-05-19T11:24:33.341Z,2.33
2023-05-19T11:26:44.455Z,2.10
2023-05-19T11:28:46.322Z,2.33
2023-05-19T11:30:52.294Z,2.45
2023-05-19T11:32:54.637Z,2.38
2023-05-19T11:34:56.994Z,2.25
2023-05-19T11:36:59.510Z,2.28
2023-05-19T11:39:02.638Z,2.17
2023-05-19T11:41:04.954Z,2.08
2023-05-19T11:43:06.811Z,2.15
2023-05-19T11:45:09.344Z,2.03
2023-05-19T11:47:11.242Z,1.90
2023-05-19T11:49:13.546Z,2.15
2023-05-19T11:51:16.508Z,2.05
2023-05-19T11:53:19.969Z,2.40
2023-05-19T11:55:22.354Z,2.30
2023-05-19T11:57:24.282Z,2.00
2023-05-19T11:59:40.673Z,1.90
2023-05-19T12:01:42.735Z,1.40
2023-05-19T12:03:44.715Z,2.47
2023-05-19T12:05:48.600Z,1.77
2023-05-19T12:07:52.181Z,2.10
2023-05-19T12:09:55.878Z,1.83
2023-05-19T12:11:58.478Z,1.73
2023-05-19T12:14:01.924Z,2.10
2023-05-19T12:16:04.552Z,2.00
2023-05-19T12:20:09.432Z,1.77
2023-05-19T12:22:11.525Z,1.42
2023-05-19T12:24:13.387Z,1.73
2023-05-19T12:26:15.338Z,1.88
2023-05-19T12:28:17.275Z,2.10
2023-05-19T12:30:20.051Z,1.63
2023-05-19T12:34:27.620Z,1.80
2023-05-19T12:36:29.523Z,2.20
2023-05-19T12:38:31.438Z,2.15
2023-05-19T12:40:37.550Z,1.83
2023-05-19T12:42:44.839Z,1.60
2023-05-19T12:44:52.387Z,1.67
2023-05-19T12:46:54.472Z,2.17
2023-05-19T12:48:59.633Z,1.65
2023-05-19T12:51:01.510Z,1.50
2023-05-19T12:53:03.353Z,1.73
2023-05-19T12:55:07.201Z,1.67
2023-05-19T12:57:10.837Z,1.67
2023-05-19T12:59:37.287Z,1.50
2023-05-19T13:01:40.079Z,1.65
2023-05-19T13:03:42.729Z,1.60
2023-05-19T13:07:58.398Z,1.60
2023-05-19T13:10:00.400Z,1.83
2023-05-19T13:12:02.349Z,1.50
2023-05-19T13:14:04.203Z,2.03
2023-05-19T13:16:06.608Z,1.48
2023-05-19T13:18:09.236Z,1.85
2023-05-19T13:22:14.111Z,1.80
2023-05-19T13:24:15.972Z,1.50
2023-05-19T13:26:17.794Z,1.40
2023-05-19T13:28:19.831Z,2.05
2023-05-19T13:30:24.334Z,1.55
2023-05-19T13:32:26.310Z,1.40
2023-05-19T13:34:28.217Z,1.63
2023-05-19T13:36:30.067Z,1.40
2023-05-19T13:38:31.928Z,1.60
2023-05-19T13:40:35.123Z,1.40
2023-05-19T13:42:38.083Z,1.63
2023-05-19T13:46:45.395Z,1.60
2023-05-19T13:48:48.350Z,1.30
2023-05-19T13:50:52.577Z,1.50
2023-05-19T13:52:54.487Z,1.63
2023-05-19T13:54:56.880Z,2.15
2023-05-19T13:56:58.740Z,1.40
2023-05-19T13:59:00.563Z,1.60
2023-05-19T14:01:02.454Z,1.60
2023-05-19T14:03:04.400Z,1.42
2023-05-19T14:05:07.424Z,1.67
2023-05-19T14:07:11.968Z,1.40
2023-05-19T14:09:13.890Z,1.60
2023-05-19T14:11:22.665Z,1.73
2023-05-19T14:13:32.980Z,1.65
2023-05-19T14:15:38.209Z,1.50
2023-05-19T14:17:40.420Z,2.03
2023-05-19T14:19:42.430Z,1.65
2023-05-19T14:21:44.278Z,1.45
2023-05-19T14:23:46.459Z,1.52
2023-05-19T14:25:48.405Z,1.67
2023-05-19T14:27:50.621Z,1.98
2023-05-19T14:29:52.536Z,1.33
2023-05-19T14:31:54.852Z,1.45
2023-05-19T14:33:57.003Z,2.00
2023-05-19T14:36:01.505Z,1.67
2023-05-19T14:38:03.347Z,1.65
2023-05-19T14:40:05.948Z,2.03
2023-05-19T14:44:09.808Z,1.60
2023-05-19T14:46:11.706Z,2.47
2023-05-19T14:48:13.727Z,2.72
2023-05-19T14:50:15.724Z,1.92
2023-05-19T14:52:18.723Z,2.00
2023-05-19T14:54:20.667Z,1.70
2023-05-19T14:56:22.682Z,2.05
2023-05-19T14:58:28.817Z,1.80
2023-05-19T15:00:31.426Z,1.98
2023-05-19T15:02:36.035Z,2.40
2023-05-19T15:04:38.006Z,1.90
2023-05-19T15:06:39.904Z,2.17
2023-05-19T15:08:41.813Z,2.40
2023-05-19T15:10:43.683Z,3.50
2023-05-19T15:12:45.660Z,2.53
2023-05-19T15:14:47.577Z,1.90
2023-05-19T15:16:49.506Z,2.50
2023-05-19T15:18:54.591Z,2.40
2023-05-19T15:20:56.498Z,2.00
2023-05-19T15:22:58.320Z,2.13
2023-05-19T15:25:00.993Z,2.17
2023-05-19T15:29:04.629Z,2.38
2023-05-19T15:31:06.557Z,2.43
2023-05-19T15:33:08.671Z,2.38
2023-05-19T15:35:10.581Z,2.70
2023-05-19T15:37:12.494Z,2.95
2023-05-19T15:39:14.429Z,2.40
2023-05-19T15:41:16.369Z,3.08
2023-05-19T15:43:18.210Z,3.15
2023-05-19T15:45:20.192Z,3.17
2023-05-19T15:47:22.071Z,3.00
2023-05-19T15:49:25.248Z,3.60
2023-05-19T15:51:27.160Z,2.92
2023-05-19T15:53:29.117Z,2.70
2023-05-19T15:55:30.964Z,2.67
2023-05-19T15:57:33.026Z,2.63
2023-05-19T15:59:34.954Z,2.75
2023-05-19T16:01:36.859Z,2.58
2023-05-19T16:03:38.886Z,2.88
2023-05-19T16:05:40.779Z,3.03
2023-05-19T16:07:42.704Z,3.00
2023-05-19T16:09:44.701Z,3.05
2023-05-19T16:11:46.552Z,2.50
2023-05-19T16:13:48.505Z,3.33
2023-05-19T16:15:50.623Z,2.95
2023-05-19T16:17:53.866Z,3.08
2023-05-19T16:19:55.877Z,3.03
2023-05-19T16:21:57.815Z,2.90
2023-05-19T16:23:59.696Z,3.30
2023-05-19T16:26:01.573Z,3.08
2023-05-19T16:28:04.168Z,2.57
2023-05-19T16:30:06.672Z,2.85
2023-05-19T16:32:08.576Z,2.72
2023-05-19T16:34:10.478Z,3.20
2023-05-19T16:36:12.347Z,3.00
2023-05-19T16:38:14.246Z,2.70
2023-05-19T16:40:16.263Z,2.90
2023-05-19T16:42:18.129Z,3.08
2023-05-19T16:44:19.992Z,2.80
2023-05-19T16:46:22.015Z,3.22
2023-05-19T16:48:23.956Z,3.15
2023-05-19T16:50:25.837Z,3.00
2023-05-19T16:52:27.740Z,2.92
2023-05-19T16:54:29.591Z,2.75
2023-05-19T16:56:31.481Z,3.28
2023-05-19T16:58:33.743Z,3.10
2023-05-19T17:00:36.166Z,2.83
2023-05-19T17:02:38.255Z,2.50
2023-05-19T17:04:40.166Z,2.83
2023-05-19T17:06:42.043Z,3.07
2023-05-19T17:08:43.969Z,3.07
2023-05-19T17:10:47.409Z,2.83
2023-05-19T17:12:49.294Z,3.20
2023-05-19T17:14:52.273Z,3.22
2023-05-19T17:16:54.334Z,3.47
2023-05-19T17:18:56.622Z,2.90
2023-05-19T17:21:03.504Z,2.90
2023-05-19T17:23:06.145Z,2.75
2023-05-19T17:25:08.770Z,3.22
2023-05-19T17:27:10.705Z,2.95
2023-05-19T17:29:12.552Z,3.22
2023-05-19T17:31:14.824Z,3.40
2023-05-19T17:33:16.793Z,3.28
2023-05-19T17:35:18.818Z,2.95
2023-05-19T17:37:23.562Z,3.20
2023-05-19T17:39:25.609Z,3.55
2023-05-19T17:41:27.747Z,3.25
2023-05-19T17:43:29.668Z,3.42
2023-05-19T17:45:31.711Z,3.13
2023-05-19T17:47:34.401Z,3.65
2023-05-19T17:51:38.508Z,3.55
2023-05-19T17:53:40.791Z,3.15
2023-05-19T17:55:43.375Z,3.33
2023-05-19T17:57:45.604Z,3.28
2023-05-19T17:59:47.781Z,2.90
2023-05-19T18:01:49.914Z,2.95
2023-05-19T18:03:52.319Z,3.53
2023-05-19T18:05:54.638Z,3.40
2023-05-19T18:07:57.229Z,3.30
2023-05-19T18:09:59.093Z,2.95
2023-05-19T18:12:02.544Z,2.73
2023-05-19T18:14:04.476Z,2.83
2023-05-19T18:16:06.575Z,2.80
2023-05-19T18:18:10.676Z,2.85
2023-05-19T18:20:13.020Z,2.67
2023-05-19T18:22:15.025Z,2.72
2023-05-19T18:24:16.939Z,2.83
2023-05-19T18:26:18.810Z,2.40
2023-05-19T18:28:20.777Z,2.40
2023-05-19T18:30:25.325Z,3.35
2023-05-19T18:32:27.211Z,2.85
2023-05-19T18:34:29.730Z,2.80
2023-05-19T18:36:31.883Z,2.53
2023-05-19T18:38:33.730Z,2.85
2023-05-19T18:40:35.850Z,2.30
2023-05-19T18:42:37.891Z,1.88
2023-05-19T18:44:39.812Z,2.50
2023-05-19T18:46:41.879Z,2.80
2023-05-19T18:48:43.869Z,3.35
2023-05-19T18:50:45.801Z,4.43
2023-05-19T18:52:47.789Z,3.22
2023-05-19T18:54:50.402Z,2.65
2023-05-19T18:56:52.237Z,2.90
2023-05-19T18:58:57.429Z,2.58
2023-05-19T19:00:59.346Z,2.67
2023-05-19T19:03:01.933Z,2.63
2023-05-19T19:05:05.071Z,3.03
2023-05-19T19:07:06.969Z,3.03
2023-05-19T19:09:09.007Z,3.13
2023-05-19T19:11:11.429Z,2.97
2023-05-19T19:13:13.303Z,3.50
2023-05-19T19:15:15.314Z,2.90
2023-05-19T19:17:18.171Z,2.90
2023-05-19T19:19:20.523Z,3.30
2023-05-19T19:21:24.179Z,2.97
2023-05-19T19:23:26.089Z,3.40
2023-05-19T19:25:28.106Z,2.95
2023-05-19T19:27:31.324Z,3.28
2023-05-19T19:29:33.195Z,3.13
2023-05-19T19:31:35.095Z,3.72
2023-05-19T19:33:36.997Z,3.30
2023-05-19T19:35:38.881Z,3.22
2023-05-19T19:37:40.798Z,3.80
2023-05-19T19:39:42.691Z,3.25
2023-05-19T19:41:44.629Z,3.23
2023-05-19T19:43:46.519Z,3.10
2023-05-19T19:45:48.388Z,3.47
2023-05-19T19:47:50.368Z,3.63
2023-05-19T19:49:52.337Z,3.85
2023-05-19T19:51:54.188Z,3.58
2023-05-19T19:53:56.095Z,3.50
2023-05-19T19:55:59.160Z,3.05
2023-05-19T19:58:01.027Z,3.03
2023-05-19T20:00:07.739Z,3.45
2023-05-19T20:02:09.768Z,3.00
2023-05-19T20:04:11.934Z,3.08
2023-05-19T20:06:14.269Z,2.88
2023-05-19T20:08:16.252Z,3.70
2023-05-19T20:10:18.306Z,3.30
2023-05-19T20:12:20.221Z,3.03
2023-05-19T20:14:22.172Z,3.40
2023-05-19T20:16:24.413Z,3.15
2023-05-19T20:18:27.902Z,3.33
2023-05-19T20:20:29.722Z,3.10
2023-05-19T20:22:31.635Z,3.00
2023-05-19T20:24:33.501Z,2.95
2023-05-19T20:26:35.469Z,3.37
2023-05-19T20:28:37.384Z,3.40
2023-05-19T20:30:39.356Z,3.65
2023-05-19T20:32:41.257Z,3.13
2023-05-19T20:34:43.504Z,3.58
2023-05-19T20:36:45.638Z,3.03
2023-05-19T20:38:48.026Z,3.75
2023-05-19T20:40:49.917Z,2.67
2023-05-19T20:42:51.991Z,2.85
2023-05-19T20:44:53.863Z,2.95
2023-05-19T20:46:55.810Z,2.90
2023-05-19T20:48:57.780Z,3.10
2023-05-19T20:50:59.632Z,3.95
2023-05-19T20:53:01.516Z,2.92
2023-05-19T20:55:03.717Z,2.50
2023-05-19T20:57:09.167Z,3.35
2023-05-19T20:59:11.116Z,2.72
2023-05-19T21:01:13.068Z,2.83
2023-05-19T21:03:15.229Z,3.05
2023-05-19T21:05:17.235Z,2.67
2023-05-19T21:07:19.221Z,2.70
2023-05-19T21:09:22.086Z,3.10
2023-05-19T21:11:24.022Z,2.80
2023-05-19T21:13:25.990Z,2.88
2023-05-19T21:15:27.848Z,3.03
2023-05-19T21:17:30.208Z,2.97
2023-05-19T21:19:32.243Z,2.30
2023-05-19T21:21:34.224Z,2.83
2023-05-19T21:23:36.078Z,3.27
2023-05-19T21:25:37.955Z,3.33
2023-05-19T21:27:40.638Z,3.53
2023-05-19T21:31:44.508Z,2.92
2023-05-19T21:33:46.367Z,2.35
2023-05-19T21:35:48.264Z,2.95
2023-05-19T21:37:50.141Z,2.72
2023-05-19T21:39:52.050Z,3.10
2023-05-19T21:41:53.903Z,2.75
2023-05-19T21:43:55.800Z,3.00
2023-05-19T21:45:57.770Z,2.72
2023-05-19T21:47:59.701Z,3.28
2023-05-19T21:50:01.745Z,3.20
2023-05-19T21:52:03.883Z,2.90
2023-05-19T21:54:05.733Z,2.58
2023-05-19T21:56:07.734Z,3.03
2023-05-19T21:58:09.652Z,2.92
2023-05-19T22:00:13.415Z,3.50
2023-05-19T22:02:15.654Z,3.30
2023-05-19T22:04:18.782Z,3.40
2023-05-19T22:06:21.301Z,3.00
2023-05-19T22:08:23.248Z,2.53
2023-05-19T22:10:25.197Z,2.65
2023-05-19T22:12:27.100Z,3.53
2023-05-19T22:14:28.995Z,3.05
2023-05-19T22:16:31.219Z,2.97
2023-05-19T22:18:33.174Z,3.45
2023-05-19T22:20:35.631Z,2.67
2023-05-19T22:22:37.521Z,3.40
2023-05-19T22:24:39.506Z,3.10
2023-05-19T22:26:42.900Z,2.90
2023-05-19T22:28:44.816Z,3.05
2023-05-19T22:30:46.718Z,3.13
2023-05-19T22:32:48.571Z,3.10
2023-05-19T22:34:50.609Z,3.15
2023-05-19T22:36:52.695Z,3.22
2023-05-19T22:38:54.604Z,3.22
2023-05-19T22:40:56.405Z,3.22
2023-05-19T22:42:58.264Z,3.33
2023-05-19T22:45:00.119Z,3.33
2023-05-19T22:47:01.981Z,2.80
2023-05-19T22:49:03.860Z,2.70
2023-05-19T22:51:05.765Z,2.47
2023-05-19T22:53:07.605Z,3.42
2023-05-19T22:55:09.829Z,2.93
2023-05-19T22:57:11.882Z,2.88
2023-05-19T22:59:13.796Z,3.17
2023-05-19T23:01:17.195Z,2.92
2023-05-19T23:03:19.439Z,3.10
2023-05-19T23:05:21.289Z,3.10
2023-05-19T23:07:23.170Z,3.30
2023-05-19T23:09:25.015Z,2.83
2023-05-19T23:11:26.821Z,2.70
2023-05-19T23:13:31.285Z,3.07
2023-05-19T23:15:33.282Z,3.50
2023-05-19T23:17:35.607Z,3.25
2023-05-19T23:19:37.526Z,3.65
2023-05-19T23:21:39.429Z,2.85
2023-05-19T23:23:41.292Z,2.90
2023-05-19T23:25:43.127Z,3.08
2023-05-19T23:27:46.577Z,3.40
2023-05-19T23:29:49.302Z,3.50
2023-05-19T23:33:53.031Z,3.08
2023-05-19T23:35:54.882Z,3.33
2023-05-19T23:37:56.746Z,3.43
2023-05-19T23:39:58.597Z,3.15
2023-05-19T23:42:00.460Z,3.27
2023-05-19T23:44:02.321Z,3.10
2023-05-19T23:46:04.178Z,3.40
2023-05-19T23:48:06.399Z,3.17
2023-05-19T23:50:08.876Z,2.85
2023-05-19T23:52:11.264Z,3.25
2023-05-19T23:54:13.121Z,3.05
2023-05-19T23:56:15.098Z,3.17
2023-05-19T23:58:17.036Z,2.87
